ADDS METAR Data INFO
IDs: Format: Raw Decoded Include TAF

Data at: 1712 UTC 23 Jul 2018

METAR for:KLCK (Rickenbacker AFB, OH, US)
Text:KLCK 231655Z AUTO 05003KT 10SM SCT014 BKN025 OVC032 23/20 A2988 RMK AO2 T02320200
Temperature: 23.2°C ( 74°F)
Dewpoint: 20.0°C ( 68°F) [RH = 82%]
Pressure (altimeter):29.88 inches Hg (1011.9 mb)
Winds:from the NE (50 degrees) at 3 MPH (3 knots; 1.5 m/s)
Visibility:10 or more sm (16+ km)
Ceiling:2500 feet AGL
Clouds: scattered clouds at 1400 feet AGL, broken clouds at 2500 feet AGL, overcast cloud deck at 3200 feet AGL
QC Flag:automated observation with no human augmentation